Time;durP1;ratioP1;P1;durP2;ratioP2;P2;SDS_P1;SDS_P2;PMS_P1;PMS_P2;Temp;Humidity;BMP_temperature;BMP_pressure;BME280_temperature;BME280_humidity;BME280_pressure;Samples;Min_cycle;Max_cycle;Signal;HPM_P1;HPM_P2
2021/06/05 00:01:02;;;;;;;;;8.50;8.50;;;;;20.82;55.24;101707.25;5037684;28;48228;-68
2021/06/05 00:03:28;;;;;;;;;11.00;7.75;;;;;20.80;55.57;101708.28;5037935;28;45459;-68
2021/06/05 00:05:57;;;;;;;;;7.00;7.00;;;;;20.77;55.21;101708.44;5043603;28;46039;-68
2021/06/05 00:08:24;;;;;;;;;7.75;7.50;;;;;20.72;55.36;101713.19;5044937;28;45699;-69
2021/06/05 00:10:55;;;;;;;;;8.75;8.25;;;;;20.69;55.78;101721.41;5042094;28;47575;-70
2021/06/05 00:13:25;;;;;;;;;8.00;7.67;;;;;20.66;56.06;101719.75;5040040;28;45381;-69
2021/06/05 00:15:52;;;;;;;;;8.00;8.00;;;;;20.65;55.72;101720.69;5051428;28;45543;-69
2021/06/05 00:18:18;;;;;;;;;10.00;8.00;;;;;20.66;55.85;101722.44;5046713;28;46087;-69
2021/06/05 00:20:44;;;;;;;;;10.50;10.50;;;;;20.64;56.07;101718.94;5049468;28;47202;-70
2021/06/05 00:23:13;;;;;;;;;9.67;9.67;;;;;20.59;56.40;101718.31;5050900;28;45760;-69
2021/06/05 00:25:40;;;;;;;;;8.50;8.00;;;;;20.57;55.83;101717.47;5041203;28;45558;-69
2021/06/05 00:28:06;;;;;;;;;9.00;9.00;;;;;20.55;55.97;101717.56;5045668;28;45614;-69
2021/06/05 00:30:32;;;;;;;;;9.75;8.75;;;;;20.55;55.99;101719.38;5041027;28;47312;-69
2021/06/05 00:32:58;;;;;;;;;9.50;9.00;;;;;20.53;56.22;101714.06;5034834;28;45473;-68
2021/06/05 00:35:26;;;;;;;;;6.50;6.50;;;;;20.51;56.50;101718.66;5037275;28;45575;-69
2021/06/05 00:37:52;;;;;;;;;8.00;8.00;;;;;20.50;56.14;101716.03;5038434;28;45416;-70
2021/06/05 00:40:20;;;;;;;;;7.75;7.75;;;;;20.50;56.66;101724.13;5041590;28;48296;-70
2021/06/05 00:42:46;;;;;;;;;7.00;6.50;;;;;20.50;56.57;101716.91;5039518;28;45952;-70
2021/06/05 00:45:14;;;;;;;;;10.00;7.00;;;;;20.49;56.95;101709.78;5037286;28;45892;-69
2021/06/05 00:47:39;;;;;;;;;7.00;7.00;;;;;20.53;56.83;101713.19;5050243;28;45513;-70
2021/06/05 00:50:09;;;;;;;;;9.50;9.00;;;;;20.54;56.52;101709.53;5050943;28;48305;-69
2021/06/05 00:52:35;;;;;;;;;8.75;8.75;;;;;20.56;56.17;101718.44;5038373;28;45884;-65
2021/06/05 00:55:01;;;;;;;;;9.00;9.00;;;;;20.57;56.84;101709.38;5051826;28;45357;-69
2021/06/05 00:57:26;;;;;;;;;10.00;9.50;;;;;20.61;57.00;101712.84;5045032;28;45536;-69
2021/06/05 00:59:52;;;;;;;;;7.50;7.25;;;;;20.61;56.13;101711.03;5038666;28;47159;-69
2021/06/05 01:02:18;;;;;;;;;9.00;9.00;;;;;20.59;56.28;101699.44;5054850;28;45683;-68
2021/06/05 01:04:44;;;;;;;;;9.25;7.00;;;;;20.60;56.72;101701.19;5050098;28;45908;-69
2021/06/05 01:07:18;;;;;;;;;11.50;10.75;;;;;20.64;56.43;101704.59;5039852;28;45631;-68
2021/06/05 01:09:57;;;;;;;;;10.00;10.00;;;;;20.64;56.63;101705.47;5041654;28;46099;-69
2021/06/05 01:13:01;;;;;;;;;9.75;9.75;;;;;20.65;56.63;101701.81;5054204;28;45519;-70
2021/06/05 01:15:35;;;;;;;;;9.00;9.00;;;;;20.64;56.45;101700.06;5040989;28;45466;-70
2021/06/05 01:18:06;;;;;;;;;10.50;9.75;;;;;20.66;56.68;101702.69;5054042;28;45437;-68
2021/06/05 01:21:01;;;;;;;;;10.75;10.75;;;;;20.65;56.47;101695.56;5042602;28;47340;-69
2021/06/05 01:23:32;;;;;;;;;9.50;8.50;;;;;20.68;56.22;101698.09;5053572;28;48419;-70
2021/06/05 01:26:03;;;;;;;;;9.25;9.25;;;;;20.66;56.39;101687.38;5044332;28;45330;-69
2021/06/05 01:28:54;;;;;;;;;11.75;11.75;;;;;20.64;56.23;101691.97;5041147;28;45400;-69
2021/06/05 01:31:27;;;;;;;;;12.50;9.50;;;;;20.64;56.44;101688.41;5031700;28;49162;-69
2021/06/05 01:33:54;;;;;;;;;16.00;13.00;;;;;20.66;56.43;101697.31;5057620;28;45912;-70
2021/06/05 01:36:22;;;;;;;;;13.75;13.00;;;;;20.65;56.46;101701.81;5043638;28;45366;-69
2021/06/05 01:38:52;;;;;;;;;12.75;11.00;;;;;20.60;56.27;101697.59;5039248;28;45627;-70
2021/06/05 01:41:21;;;;;;;;;10.00;10.00;;;;;20.49;56.67;101703.50;5040888;28;47301;-69
2021/06/05 01:43:48;;;;;;;;;10.50;10.50;;;;;20.41;56.40;101703.81;5050731;28;45437;-70
2021/06/05 01:46:16;;;;;;;;;12.75;12.75;;;;;20.37;56.73;101701.34;5050515;28;45580;-69
2021/06/05 01:48:41;;;;;;;;;15.50;14.25;;;;;20.35;57.14;101705.94;5046972;28;45491;-69
2021/06/05 01:51:13;;;;;;;;;12.00;12.00;;;;;20.34;57.00;101712.28;5046808;28;48378;-69
2021/06/05 01:53:44;;;;;;;;;10.25;9.00;;;;;20.33;56.84;101710.50;5043709;28;45697;-69
2021/06/05 01:56:28;;;;;;;;;10.25;10.25;;;;;20.27;57.11;101709.00;5052531;28;45479;-69
2021/06/05 01:58:55;;;;;;;;;11.50;10.00;;;;;20.23;57.03;101700.19;5052830;28;45496;-69
2021/06/05 02:01:21;;;;;;;;;14.25;12.50;;;;;20.21;57.21;101695.81;5042248;28;47399;-69
2021/06/05 02:03:47;;;;;;;;;10.75;9.50;;;;;20.19;57.59;101689.59;5039788;28;45603;-70
2021/06/05 02:06:12;;;;;;;;;13.00;13.00;;;;;20.18;56.86;101691.41;5048639;28;45751;-69
2021/06/05 02:08:38;;;;;;;;;12.50;10.25;;;;;20.16;57.26;101687.03;5050658;28;45624;-68
2021/06/05 02:11:08;;;;;;;;;15.00;14.00;;;;;20.12;57.60;101675.53;5037956;28;47107;-67
2021/06/05 02:13:44;;;;;;;;;12.50;12.00;;;;;20.08;57.69;101673.94;5040434;28;45285;-68
2021/06/05 02:16:18;;;;;;;;;14.00;14.00;;;;;20.09;57.65;101675.69;5044652;28;45443;-68
2021/06/05 02:18:52;;;;;;;;;12.00;11.00;;;;;20.08;57.69;101673.94;5044643;28;45467;-68
2021/06/05 02:21:21;;;;;;;;;16.75;15.00;;;;;20.06;57.83;101683.88;5042874;28;46285;-69
2021/06/05 02:23:59;;;;;;;;;14.50;12.50;;;;;20.04;58.11;101676.81;5054690;28;45744;-68
2021/06/05 02:26:25;;;;;;;;;13.75;12.25;;;;;19.99;58.05;101679.75;5053448;28;45526;-68
2021/06/05 02:28:55;;;;;;;;;13.50;13.00;;;;;19.96;57.89;101682.59;5039085;28;45527;-68
2021/06/05 02:31:23;;;;;;;;;16.75;15.75;;;;;19.94;58.13;101684.44;5046083;28;47539;-69
2021/06/05 02:33:49;;;;;;;;;19.25;16.00;;;;;19.88;58.09;101673.97;5043370;28;46073;-69
2021/06/05 02:36:16;;;;;;;;;17.75;15.75;;;;;19.84;58.13;101672.34;5052728;28;45696;-69
2021/06/05 02:38:46;;;;;;;;;15.25;15.25;;;;;19.83;58.21;101676.00;5044322;28;45673;-69
2021/06/05 02:41:14;;;;;;;;;16.25;14.00;;;;;19.83;58.41;101679.56;5037836;28;47380;-68
2021/06/05 02:43:42;;;;;;;;;15.75;15.25;;;;;19.85;58.79;101685.75;5045459;28;45518;-67
2021/06/05 02:46:22;;;;;;;;;14.75;14.75;;;;;19.87;58.29;101675.78;5047638;28;45639;-67
2021/06/05 02:48:51;;;;;;;;;14.50;14.50;;;;;19.86;58.41;101679.44;5039063;28;45426;-68
2021/06/05 02:51:32;;;;;;;;;17.00;14.50;;;;;19.86;58.54;101675.84;5044220;28;47163;-69
2021/06/05 02:53:58;;;;;;;;;15.75;15.75;;;;;19.81;58.36;101673.34;5043864;28;45399;-68
2021/06/05 02:56:25;;;;;;;;;17.00;16.00;;;;;19.80;58.34;101678.81;5052799;28;45404;-68
2021/06/05 02:58:50;;;;;;;;;20.00;16.75;;;;;19.78;58.35;101669.94;5044486;28;45600;-69
2021/06/05 03:01:16;;;;;;;;;17.50;15.75;;;;;19.76;58.35;101664.63;5040331;28;47176;-68
2021/06/05 03:03:42;;;;;;;;;17.25;15.75;;;;;19.78;58.24;101675.31;5041184;28;45664;-68
2021/06/05 03:06:09;;;;;;;;;17.75;14.75;;;;;19.75;58.50;101667.38;5043805;28;45662;-70
2021/06/05 03:08:37;;;;;;;;;18.00;16.75;;;;;19.73;58.47;101669.28;5056823;28;45387;-63
2021/06/05 03:11:08;;;;;;;;;17.00;17.00;;;;;19.72;58.68;101667.53;5050047;28;48206;-68
2021/06/05 03:13:34;;;;;;;;;17.25;17.00;;;;;19.69;58.48;101666.72;5041399;28;45922;-68
2021/06/05 03:16:00;;;;;;;;;17.75;17.25;;;;;19.67;58.52;101673.97;5048646;28;45586;-68
2021/06/05 03:18:26;;;;;;;;;17.75;15.25;;;;;19.63;58.54;101672.34;5038472;28;45445;-67
2021/06/05 03:20:54;;;;;;;;;17.25;16.25;;;;;19.60;58.40;101675.19;5037538;28;47985;-69
2021/06/05 03:23:23;;;;;;;;;20.75;19.00;;;;;19.54;58.55;101678.09;5046057;28;45782;-68
2021/06/05 03:25:50;;;;;;;;;18.75;16.25;;;;;19.48;58.68;101672.13;5039987;28;45393;-67
2021/06/05 03:28:25;;;;;;;;;22.00;20.00;;;;;19.40;58.80;101673.31;5038415;28;45393;-68
2021/06/05 03:30:51;;;;;;;;;19.00;19.00;;;;;19.41;58.79;101674.19;5037942;28;46973;-68
2021/06/05 03:33:18;;;;;;;;;18.25;18.00;;;;;19.39;58.75;101676.09;5040799;28;46293;-68
2021/06/05 03:35:44;;;;;;;;;24.00;22.25;;;;;19.37;58.94;101678.84;5046976;28;45543;-68
2021/06/05 03:38:10;;;;;;;;;17.75;17.75;;;;;19.36;58.78;101669.03;5039075;28;45631;-66
2021/06/05 03:40:38;;;;;;;;;25.25;22.25;;;;;19.31;58.85;101676.44;5053894;28;45593;-65
2021/06/05 03:43:04;;;;;;;;;25.25;21.25;;;;;19.29;58.81;101672.91;5043722;28;45427;-69
2021/06/05 03:45:29;;;;;;;;;23.50;20.75;;;;;19.25;58.86;101676.69;5048202;28;45399;-66
2021/06/05 03:47:56;;;;;;;;;24.50;17.75;;;;;19.19;58.94;101671.56;5053701;28;45572;-68
2021/06/05 03:50:29;;;;;;;;;18.50;18.50;;;;;19.15;58.79;101669.06;5032743;28;46292;-69
2021/06/05 03:52:55;;;;;;;;;19.25;18.25;;;;;19.13;59.05;101668.25;5046733;28;45792;-67
2021/06/05 03:55:21;;;;;;;;;24.50;21.50;;;;;19.12;59.10;101670.06;5041745;28;45702;-67
2021/06/05 03:57:47;;;;;;;;;18.50;18.50;;;;;19.12;59.48;101664.69;5054003;28;45502;-69
2021/06/05 04:00:18;;;;;;;;;20.00;19.00;;;;;19.11;59.31;101669.19;5045017;28;45344;-67
2021/06/05 04:02:45;;;;;;;;;15.75;14.50;;;;;19.09;59.04;101671.06;5049316;28;46048;-67
2021/06/05 04:05:11;;;;;;;;;20.00;20.00;;;;;19.08;59.32;101665.75;5048184;28;46215;-68
2021/06/05 04:07:37;;;;;;;;;19.25;17.00;;;;;19.07;59.21;101669.41;5046613;28;45348;-69
2021/06/05 04:10:06;;;;;;;;;16.00;14.75;;;;;19.09;59.41;101671.06;5039737;28;47966;-68
2021/06/05 04:12:31;;;;;;;;;23.50;21.25;;;;;19.08;58.71;101680.09;5040012;28;45507;-68
2021/06/05 04:14:57;;;;;;;;;18.25;17.75;;;;;19.07;59.34;101675.66;5050219;28;45687;-65
2021/06/05 04:17:22;;;;;;;;;17.00;17.00;;;;;19.06;59.32;101679.28;5050671;28;45731;-68
2021/06/05 04:19:48;;;;;;;;;20.75;18.00;;;;;19.06;59.26;101679.28;5046655;28;47415;-68
2021/06/05 04:22:14;;;;;;;;;20.25;17.75;;;;;19.07;59.10;101690.91;5054891;28;45501;-68
2021/06/05 04:24:39;;;;;;;;;19.00;16.25;;;;;19.05;59.17;101687.38;5056730;28;45565;-68
2021/06/05 04:27:06;;;;;;;;;21.75;17.75;;;;;19.03;59.18;101691.97;5048211;28;45424;-68
2021/06/05 04:29:32;;;;;;;;;22.25;19.50;;;;;19.03;59.16;101697.34;5049282;28;47787;-68
2021/06/05 04:31:58;;;;;;;;;18.25;16.00;;;;;19.02;59.19;101700.97;5047974;28;45547;-68
2021/06/05 04:34:23;;;;;;;;;16.75;15.75;;;;;18.99;59.04;101691.22;5047170;28;46000;-68
2021/06/05 04:36:50;;;;;;;;;17.00;14.75;;;;;18.99;59.34;101693.91;5050159;28;45598;-67
2021/06/05 04:39:17;;;;;;;;;21.50;20.25;;;;;18.97;59.27;101695.81;5049155;28;47406;-68
2021/06/05 04:41:43;;;;;;;;;18.00;15.50;;;;;18.99;59.24;101691.22;5045201;28;45423;-68
2021/06/05 04:44:08;;;;;;;;;17.50;17.50;;;;;18.99;59.29;101695.72;5045774;28;45236;-67
2021/06/05 04:46:34;;;;;;;;;16.00;16.00;;;;;18.97;59.15;101703.00;5045682;28;45664;-67
2021/06/05 04:48:59;;;;;;;;;17.00;16.00;;;;;18.91;59.16;101704.09;5038513;28;47194;-68
2021/06/05 04:51:26;;;;;;;;;16.25;13.25;;;;;18.93;59.33;101704.94;5046551;28;45752;-67
2021/06/05 04:53:52;;;;;;;;;16.50;14.75;;;;;18.92;59.19;101713.03;5050816;28;45505;-68
2021/06/05 04:56:33;;;;;;;;;16.25;15.25;;;;;18.87;59.20;101718.63;5045138;28;45786;-68
2021/06/05 04:58:59;;;;;;;;;12.50;12.50;;;;;18.84;59.19;101721.44;5045964;28;47071;-68
2021/06/05 05:01:24;;;;;;;;;17.00;15.25;;;;;18.79;59.11;101728.78;5042798;28;45694;-68
2021/06/05 05:03:50;;;;;;;;;14.25;13.75;;;;;18.74;59.36;101729.00;5047030;28;45685;-69
2021/06/05 05:06:15;;;;;;;;;17.75;15.25;;;;;18.74;59.28;101728.13;5046378;28;45473;-68
2021/06/05 05:08:41;;;;;;;;;13.00;13.00;;;;;18.72;59.41;101730.88;5045009;28;47487;-69
2021/06/05 05:11:06;;;;;;;;;13.25;11.25;;;;;18.73;59.50;101737.13;5052362;28;46397;-69
2021/06/05 05:13:34;;;;;;;;;19.25;15.00;;;;;18.72;59.49;101747.00;5051159;28;45373;-69
2021/06/05 05:16:01;;;;;;;;;13.50;12.75;;;;;18.70;59.54;101743.50;5050199;28;46557;-67
2021/06/05 05:18:27;;;;;;;;;16.00;15.25;;;;;18.72;59.42;101744.31;5051779;28;47822;-70
2021/06/05 05:20:54;;;;;;;;;15.00;14.50;;;;;18.75;59.33;101754.94;5051804;28;45622;-68
2021/06/05 05:23:22;;;;;;;;;17.50;16.50;;;;;18.77;59.35;101761.13;5048423;28;45895;-68
2021/06/05 05:25:48;;;;;;;;;16.00;14.00;;;;;18.78;59.13;101762.00;5053878;28;45630;-69
2021/06/05 05:28:15;;;;;;;;;17.00;13.25;;;;;18.76;59.07;101761.19;5051807;28;47071;-69
2021/06/05 05:31:03;;;;;;;;;13.50;13.50;;;;;18.74;58.92;101776.53;5049744;28;45499;-69
2021/06/05 05:33:28;;;;;;;;;15.75;14.00;;;;;18.71;59.37;101782.03;5052760;28;45391;-69
2021/06/05 05:35:56;;;;;;;;;15.50;13.50;;;;;18.72;59.28;101781.09;5054152;28;45612;-68
2021/06/05 05:38:23;;;;;;;;;14.25;13.00;;;;;18.75;59.31;101786.34;5055105;28;48083;-68
2021/06/05 05:40:50;;;;;;;;;13.25;12.00;;;;;18.75;59.24;101787.22;5049647;28;45446;-68
2021/06/05 05:43:16;;;;;;;;;16.00;15.00;;;;;18.79;59.32;101790.66;5048755;28;45782;-68
2021/06/05 05:45:42;;;;;;;;;13.00;11.67;;;;;18.84;59.17;101790.50;5041817;28;46710;-69
2021/06/05 05:48:11;;;;;;;;;13.75;13.25;;;;;18.86;59.23;101799.38;5044744;28;47111;-70
2021/06/05 05:50:38;;;;;;;;;15.00;14.00;;;;;18.88;59.28;101801.06;5038513;27;45400;-69
2021/06/05 05:53:04;;;;;;;;;13.00;13.00;;;;;18.89;59.24;101794.75;5046950;28;45785;-68
2021/06/05 05:55:31;;;;;;;;;12.00;11.50;;;;;18.93;58.83;101799.09;5052185;28;45625;-69
2021/06/05 05:58:06;;;;;;;;;15.00;14.25;;;;;18.95;59.27;101794.53;5050707;28;45798;-65
2021/06/05 06:00:33;;;;;;;;;19.75;15.25;;;;;19.01;59.10;101798.78;5046235;28;45434;-65
2021/06/05 06:02:59;;;;;;;;;17.50;15.50;;;;;19.01;58.95;101799.66;5047096;28;45957;-65
2021/06/05 06:05:24;;;;;;;;;14.25;13.75;;;;;19.02;58.67;101806.78;5049590;28;45568;-64
2021/06/05 06:07:50;;;;;;;;;11.75;10.75;;;;;19.04;58.69;101809.41;5047988;28;45420;-63
2021/06/05 06:10:18;;;;;;;;;13.75;11.75;;;;;19.04;58.62;101807.59;5045478;28;45768;-63
2021/06/05 06:12:44;;;;;;;;;13.75;13.75;;;;;19.05;58.54;101816.53;5044587;28;45471;-64
2021/06/05 06:15:13;;;;;;;;;12.75;12.75;;;;;19.05;58.64;101811.16;5051471;28;45602;-64
2021/06/05 06:17:43;;;;;;;;;15.75;12.00;;;;;19.03;58.38;101813.91;5055248;28;46877;-64
2021/06/05 06:20:15;;;;;;;;;17.75;15.00;;;;;19.03;58.37;101807.66;5051072;28;45558;-63
2021/06/05 06:22:40;;;;;;;;;15.50;11.75;;;;;19.03;58.61;101819.28;5048811;28;45574;-63
2021/06/05 06:25:07;;;;;;;;;15.00;14.25;;;;;19.06;58.71;101818.31;5050589;28;45822;-63
2021/06/05 06:27:35;;;;;;;;;15.50;13.75;;;;;19.06;58.35;101816.50;5052474;28;48177;-63
2021/06/05 06:30:01;;;;;;;;;11.75;11.75;;;;;19.05;58.56;101814.72;5047841;28;45474;-63
2021/06/05 06:32:27;;;;;;;;;11.25;11.25;;;;;19.07;58.62;101812.00;5048914;28;45551;-64
2021/06/05 06:34:53;;;;;;;;;14.25;13.75;;;;;19.07;58.46;101820.06;5040000;28;47154;-64
2021/06/05 06:37:19;;;;;;;;;15.75;14.00;;;;;19.02;58.41;101820.22;5040276;28;47278;-64
2021/06/05 06:39:44;;;;;;;;;14.25;14.25;;;;;18.99;58.33;101823.03;5054748;28;45477;-63
2021/06/05 06:42:10;;;;;;;;;11.75;11.75;;;;;18.98;58.41;101828.50;5047504;28;45544;-65
2021/06/05 06:44:36;;;;;;;;;14.00;13.25;;;;;19.00;58.53;101832.00;5047524;28;45807;-64
2021/06/05 06:47:03;;;;;;;;;15.25;13.50;;;;;19.02;58.38;101833.69;5047926;28;46447;-64
2021/06/05 06:49:29;;;;;;;;;13.50;13.00;;;;;19.02;58.30;101831.00;5068865;28;45782;-63
2021/06/05 06:51:54;;;;;;;;;15.00;14.25;;;;;19.05;58.41;101832.66;5051106;28;45741;-62
2021/06/05 06:54:22;;;;;;;;;17.25;15.00;;;;;19.10;58.57;101838.78;5044642;28;45635;-62
2021/06/05 06:56:48;;;;;;;;;14.75;14.75;;;;;19.14;58.27;101836.81;5042997;28;45681;-69
2021/06/05 06:59:13;;;;;;;;;15.25;13.25;;;;;19.18;58.22;101835.75;5046673;28;45635;-65
2021/06/05 07:01:39;;;;;;;;;16.25;13.00;;;;;19.20;58.10;101840.16;5038244;28;45331;-64
2021/06/05 07:04:05;;;;;;;;;13.50;13.00;;;;;19.20;58.14;101841.97;5054341;28;45300;-64
2021/06/05 07:06:31;;;;;;;;;14.50;13.25;;;;;19.24;57.70;101847.16;5046045;28;47528;-65
2021/06/05 07:08:58;;;;;;;;;10.75;9.50;;;;;19.24;57.81;101844.47;5037496;28;45356;-64
2021/06/05 07:11:28;;;;;;;;;14.00;11.00;;;;;19.28;57.84;101853.31;5052846;28;45802;-64
2021/06/05 07:13:54;;;;;;;;;11.75;10.25;;;;;19.31;57.71;101847.78;5050013;28;45800;-65
2021/06/05 07:16:20;;;;;;;;;10.50;10.50;;;;;19.35;57.44;101849.44;5047876;28;47076;-65
2021/06/05 07:18:46;;;;;;;;;15.25;12.25;;;;;19.36;57.40;101846.69;5041912;28;45587;-65
2021/06/05 07:21:13;;;;;;;;;11.75;11.00;;;;;19.43;57.24;101841.91;5049673;28;45849;-64
2021/06/05 07:23:41;;;;;;;;;11.25;10.00;;;;;19.46;57.14;101846.31;5051483;28;45373;-67
2021/06/05 07:26:14;;;;;;;;;10.25;9.75;;;;;19.49;57.39;101846.19;5042565;28;48936;-67
2021/06/05 07:28:44;;;;;;;;;13.00;10.00;;;;;19.58;56.90;101845.84;5046782;28;45434;-68
2021/06/05 07:31:14;;;;;;;;;9.67;9.33;;;;;19.60;56.76;101842.16;5053776;28;45472;-66
2021/06/05 07:33:41;;;;;;;;;12.67;11.33;;;;;19.64;56.70;101842.88;5047709;28;45870;-66
2021/06/05 07:36:12;;;;;;;;;10.67;9.67;;;;;19.69;56.55;101847.16;5048397;28;47295;-66
2021/06/05 07:39:31;;;;;;;;;8.50;8.50;;;;;19.75;56.31;101854.09;5167017;27;124174;-67
2021/06/05 07:42:00;;;;;;;;;13.33;10.67;;;;;19.78;56.62;101853.97;5157286;27;45874;-66
2021/06/05 07:44:28;;;;;;;;;14.33;10.67;;;;;19.86;56.26;101851.84;5164288;27;45440;-66
2021/06/05 07:46:57;;;;;;;;;9.00;8.67;;;;;19.92;56.47;101853.38;5166668;27;45472;-66
2021/06/05 07:49:32;;;;;;;;;10.33;10.00;;;;;19.99;55.96;101849.50;5143002;27;47336;-66
2021/06/05 07:51:59;;;;;;;;;12.67;9.00;;;;;20.05;56.00;101842.94;5096271;27;45309;-67
2021/06/05 07:54:25;;;;;;;;;10.33;10.00;;;;;20.10;56.01;101849.91;5093054;27;45342;-68
2021/06/05 07:56:51;;;;;;;;;9.33;9.33;;;;;20.14;55.61;101853.34;5104429;27;45371;-67
2021/06/05 07:59:19;;;;;;;;;10.33;10.33;;;;;20.14;55.60;101854.22;5100672;27;45476;-66
2021/06/05 08:01:45;;;;;;;;;11.67;11.33;;;;;20.18;55.24;101852.25;5111719;27;45912;-67
2021/06/05 08:04:10;;;;;;;;;10.00;8.00;;;;;20.15;55.37;101855.09;5102431;27;45652;-65
2021/06/05 08:06:36;;;;;;;;;10.33;10.33;;;;;20.18;55.33;101863.03;5099600;27;45916;-69
2021/06/05 08:09:02;;;;;;;;;9.67;8.00;;;;;20.22;55.66;101859.28;5092627;27;47260;-69
2021/06/05 08:11:28;;;;;;;;;10.67;10.00;;;;;20.26;55.69;101867.16;5094121;27;46693;-61
2021/06/05 08:13:53;;;;;;;;;10.00;9.67;;;;;20.31;55.21;101866.06;5095206;27;45742;-67
2021/06/05 08:16:19;;;;;;;;;11.00;10.00;;;;;20.37;55.15;101858.59;5093709;27;45512;-67
2021/06/05 08:18:44;;;;;;;;;8.33;8.33;;;;;20.38;54.65;101856.78;5091662;27;47098;-68
2021/06/05 08:21:13;;;;;;;;;9.67;9.67;;;;;20.39;54.95;101861.22;5091342;27;45640;-67
2021/06/05 08:23:40;;;;;;;;;8.67;8.67;;;;;20.44;54.74;101861.91;5095738;27;45536;-68
2021/06/05 08:26:07;;;;;;;;;8.50;8.50;;;;;20.46;54.74;101858.22;5103207;27;45541;-49
2021/06/05 08:28:33;;;;;;;;;10.25;9.00;;;;;20.49;54.90;101859.91;5091572;27;46419;-49
2021/06/05 08:31:03;;;;;;;;;10.75;9.25;;;;;20.50;54.73;101870.63;5094218;27;45420;-51
2021/06/05 08:33:28;;;;;;;;;8.50;8.50;;;;;20.48;54.68;101867.13;5095654;27;45577;-52
2021/06/05 08:35:54;;;;;;;;;11.75;11.75;;;;;20.45;54.51;101878.03;5098437;27;45719;-51
2021/06/05 08:38:25;;;;;;;;;11.25;8.50;;;;;20.45;54.55;101872.63;5100990;27;46287;-51
2021/06/05 08:41:26;;;;;;;;;12.33;11.33;;;;;20.49;54.18;101876.97;5090554;27;45424;-53
2021/06/05 08:44:09;;;;;;;;;9.25;8.75;;;;;20.46;53.86;101865.44;5098409;27;45651;-52
2021/06/05 08:46:46;;;;;;;;;9.00;9.00;;;;;20.45;54.12;101867.22;5097487;27;45741;-49
2021/06/05 08:49:19;;;;;;;;;10.00;10.00;;;;;20.46;54.10;101869.03;5090133;27;48281;-52
2021/06/05 08:52:06;;;;;;;;;10.00;8.00;;;;;20.48;54.02;101866.25;5088542;27;45858;-50
2021/06/05 08:54:54;;;;;;;;;9.00;9.00;;;;;20.54;54.59;101853.34;5084903;27;45555;-49
2021/06/05 08:57:42;;;;;;;;;14.25;12.75;;;;;20.62;53.99;101860.22;5082554;27;45917;-54
2021/06/05 09:00:21;;;;;;;;;11.67;8.33;;;;;20.67;54.34;101853.66;5092180;27;47951;-53
2021/06/05 09:02:50;;;;;;;;;8.67;8.00;;;;;20.70;54.04;101866.13;5090118;27;46087;-49
2021/06/05 09:05:22;;;;;;;;;12.00;10.50;;;;;20.70;54.00;101858.03;5089634;27;45805;-48
2021/06/05 09:07:47;;;;;;;;;10.75;10.75;;;;;20.72;53.68;101865.16;5084620;27;45682;-49
2021/06/05 09:10:18;;;;;;;;;12.25;12.25;;;;;20.72;53.62;101858.88;5081406;27;47172;-52
2021/06/05 09:12:43;;;;;;;;;10.33;10.33;;;;;20.73;53.41;101861.50;5081810;27;48250;-49
2021/06/05 09:15:23;;;;;;;;;10.50;10.50;;;;;20.77;53.99;101863.09;5086299;27;46202;-52
2021/06/05 09:17:51;;;;;;;;;10.75;10.75;;;;;20.83;54.02;101867.31;5089676;27;45421;-52
2021/06/05 09:20:33;;;;;;;;;11.00;11.00;;;;;20.92;53.58;101868.72;5085534;27;48399;-50
2021/06/05 09:23:00;;;;;;;;;10.75;10.75;;;;;20.95;53.90;101871.28;5087063;27;45464;-46
2021/06/05 09:25:25;;;;;;;;;10.00;9.50;;;;;20.99;53.47;101868.38;5083809;27;45821;-51
2021/06/05 09:27:51;;;;;;;;;9.75;9.75;;;;;21.07;53.72;101868.88;5082171;27;45478;-49
2021/06/05 09:30:32;;;;;;;;;13.00;11.33;;;;;21.15;53.52;101876.63;5087937;27;47208;-50
2021/06/05 09:33:02;;;;;;;;;14.67;13.67;;;;;21.23;52.77;101876.28;5077253;27;45849;-49
2021/06/05 09:35:39;;;;;;;;;10.67;9.67;;;;;21.31;52.87;101876.78;5080183;27;45463;-48
2021/06/05 09:38:31;;;;;;;;;10.50;9.75;;;;;21.37;53.23;101877.38;5093112;27;45554;-49
2021/06/05 09:41:09;;;;;;;;;12.00;10.00;;;;;21.42;52.38;101874.44;5077198;27;46608;-47
2021/06/05 09:43:36;;;;;;;;;12.25;11.25;;;;;21.44;52.48;101873.44;5084111;27;45866;-50
2021/06/05 09:46:20;;;;;;;;;10.33;9.67;;;;;21.50;52.43;101876.78;5096387;27;45479;-47
2021/06/05 09:48:48;;;;;;;;;11.50;11.50;;;;;21.56;51.98;101871.06;5091535;27;45527;-47
2021/06/05 09:51:37;;;;;;;;;8.00;8.00;;;;;21.64;52.38;101871.59;5103990;27;46127;-46
2021/06/05 09:54:11;;;;;;;;;10.00;8.50;;;;;21.71;51.82;101882.00;5090562;27;45379;-51
2021/06/05 09:56:48;;;;;;;;;8.67;8.67;;;;;21.78;51.37;101879.88;5077505;27;45697;-47
2021/06/05 09:59:31;;;;;;;;;8.25;8.25;;;;;21.85;51.92;101877.72;5078693;27;45573;-47
2021/06/05 10:02:12;;;;;;;;;10.00;8.25;;;;;21.90;51.61;101870.28;5086584;27;47326;-47
2021/06/05 10:04:39;;;;;;;;;8.50;8.50;;;;;21.94;51.46;101872.72;5094595;27;45465;-50
2021/06/05 10:07:24;;;;;;;;;10.00;9.00;;;;;21.99;51.33;101870.69;5094525;27;45434;-51
2021/06/05 10:09:59;;;;;;;;;9.75;9.75;;;;;22.01;51.30;101873.31;5089694;27;45395;-50
2021/06/05 10:12:28;;;;;;;;;9.25;9.25;;;;;22.06;50.89;101881.22;5093138;27;47006;-46
2021/06/05 10:15:18;;;;;;;;;10.00;10.00;;;;;22.15;50.96;101876.22;5090870;27;45585;-49
2021/06/05 10:18:22;;;;;;;;;8.50;8.50;;;;;22.23;51.01;101874.00;5083087;27;45571;-49
2021/06/05 10:21:10;;;;;;;;;9.25;9.25;;;;;22.31;50.70;101874.44;5082240;27;45361;-48
2021/06/05 10:23:45;;;;;;;;;6.75;6.75;;;;;22.32;49.84;101878.03;5056234;27;48456;-47
2021/06/05 10:26:23;;;;;;;;;8.00;8.00;;;;;22.25;50.30;101874.78;5087134;27;45639;-46
2021/06/05 10:28:55;;;;;;;;;11.25;10.00;;;;;22.21;50.52;101878.59;5082787;27;45418;-48
2021/06/05 10:31:23;;;;;;;;;7.50;7.50;;;;;22.23;50.32;101881.19;5082908;27;45810;-50
2021/06/05 10:33:56;;;;;;;;;11.00;9.00;;;;;22.24;50.10;101878.44;5092438;27;46153;-46
2021/06/05 10:36:42;;;;;;;;;11.00;10.50;;;;;22.23;50.71;101879.41;5101547;27;45531;-48
2021/06/05 10:39:12;;;;;;;;;11.00;10.50;;;;;22.21;50.36;101875.00;5084406;27;45760;-48
2021/06/05 10:41:49;;;;;;;;;11.50;11.50;;;;;22.23;50.47;101876.69;5082715;27;45350;-49
2021/06/05 10:44:14;;;;;;;;;13.25;13.25;;;;;22.33;50.63;101879.78;5086742;27;48323;-51
2021/06/05 10:47:00;;;;;;;;;10.00;10.00;;;;;22.40;50.30;101881.22;5100843;27;45598;-48
2021/06/05 10:49:37;;;;;;;;;11.00;10.75;;;;;22.49;49.58;101886.16;5082342;27;45416;-49
2021/06/05 10:52:38;;;;;;;;;15.25;15.25;;;;;22.55;50.04;101875.00;5093370;27;45976;-51
2021/06/05 10:55:27;;;;;;;;;9.75;9.50;;;;;22.68;49.43;101879.75;5078049;27;48130;-52
2021/06/05 10:58:24;;;;;;;;;13.50;11.75;;;;;22.77;49.90;101865.72;5080243;27;45568;-49
2021/06/05 11:00:52;;;;;;;;;9.50;9.50;;;;;22.81;49.49;101875.41;5049205;27;45585;-49
2021/06/05 11:03:26;;;;;;;;;9.00;9.00;;;;;22.77;49.30;101868.44;5078033;27;45855;-46
2021/06/05 11:06:10;;;;;;;;;11.50;11.50;;;;;22.74;49.52;101872.19;5086615;27;47290;-52
2021/06/05 11:08:48;;;;;;;;;13.75;12.50;;;;;22.71;49.57;101880.44;5083452;27;45962;-47
2021/06/05 11:11:40;;;;;;;;;8.50;8.50;;;;;22.60;49.17;101878.31;5082005;27;45487;-47
2021/06/05 11:14:37;;;;;;;;;8.75;8.75;;;;;22.45;50.07;101883.66;5087266;27;45576;-47
2021/06/05 11:17:29;;;;;;;;;9.75;9.75;;;;;22.39;49.77;101882.19;5086947;27;48274;-50
2021/06/05 11:20:08;;;;;;;;;10.75;10.75;;;;;22.40;50.13;101878.50;5081439;27;46024;-50
2021/06/05 11:22:52;;;;;;;;;9.00;9.00;;;;;22.47;49.87;101881.75;5077431;27;45596;-48
2021/06/05 11:25:18;;;;;;;;;9.50;9.50;;;;;22.55;50.19;101875.00;5081816;27;45430;-49
2021/06/05 11:27:47;;;;;;;;;12.00;12.00;;;;;22.59;49.95;101871.16;5089703;27;47746;-49
2021/06/05 11:30:22;;;;;;;;;12.00;11.75;;;;;22.64;50.05;101875.47;5090572;27;46126;-52